sensor_id;sensor_type;location;lat;lon;timestamp;pressure;altitude;pressure_sealevel;temperature;humidity
34506;BME280;20748;42.632;23.198;2022-07-06T00:02:12;92089.75;;;19.24;100.00
34506;BME280;20748;42.632;23.198;2022-07-06T00:04:44;92085.28;;;19.28;100.00
34506;BME280;20748;42.632;23.198;2022-07-06T00:07:17;92095.91;;;19.32;100.00
34506;BME280;20748;42.632;23.198;2022-07-06T00:09:50;92107.59;;;19.31;100.00
34506;BME280;20748;42.632;23.198;2022-07-06T00:12:22;92109.22;;;19.36;100.00
34506;BME280;20748;42.632;23.198;2022-07-06T00:14:55;92119.09;;;19.39;100.00
34506;BME280;20748;42.632;23.198;2022-07-06T00:17:27;92120.69;;;19.43;100.00
34506;BME280;20748;42.632;23.198;2022-07-06T00:20:00;92118.19;;;19.51;100.00
34506;BME280;20748;42.632;23.198;2022-07-06T00:22:33;92127.94;;;19.47;100.00
34506;BME280;20748;42.632;23.198;2022-07-06T00:25:06;92132.66;;;19.37;100.00
34506;BME280;20748;42.632;23.198;2022-07-06T00:27:39;92135.75;;;19.39;100.00
34506;BME280;20748;42.632;23.198;2022-07-06T00:30:12;92134.13;;;19.35;100.00
34506;BME280;20748;42.632;23.198;2022-07-06T00:32:44;92136.50;;;19.20;100.00
34506;BME280;20748;42.632;23.198;2022-07-06T00:35:17;92139.50;;;19.18;100.00
34506;BME280;20748;42.632;23.198;2022-07-06T00:37:50;92132.81;;;19.25;100.00
34506;BME280;20748;42.632;23.198;2022-07-06T00:40:23;92140.47;;;19.30;100.00
34506;BME280;20748;42.632;23.198;2022-07-06T00:42:56;92126.97;;;19.35;100.00
34506;BME280;20748;42.632;23.198;2022-07-06T00:45:28;92124.59;;;19.30;100.00
34506;BME280;20748;42.632;23.198;2022-07-06T00:48:01;92124.72;;;19.37;100.00
34506;BME280;20748;42.632;23.198;2022-07-06T00:50:34;92116.94;;;19.25;100.00
34506;BME280;20748;42.632;23.198;2022-07-06T00:53:07;92101.06;;;19.25;100.00
34506;BME280;20748;42.632;23.198;2022-07-06T00:55:40;92098.09;;;19.26;100.00
34506;BME280;20748;42.632;23.198;2022-07-06T00:58:13;92082.50;;;19.21;100.00
34506;BME280;20748;42.632;23.198;2022-07-06T01:00:45;92071.38;;;19.12;100.00
34506;BME280;20748;42.632;23.198;2022-07-06T01:03:17;92073.03;;;19.20;100.00
34506;BME280;20748;42.632;23.198;2022-07-06T01:05:50;92069.91;;;19.14;100.00
34506;BME280;20748;42.632;23.198;2022-07-06T01:08:24;92060.03;;;18.91;100.00
34506;BME280;20748;42.632;23.198;2022-07-06T01:10:57;92059.91;;;19.04;100.00
34506;BME280;20748;42.632;23.198;2022-07-06T01:13:30;92066.09;;;19.12;100.00
34506;BME280;20748;42.632;23.198;2022-07-06T01:16:05;92069.03;;;19.07;100.00
34506;BME280;20748;42.632;23.198;2022-07-06T01:18:37;92061.97;;;18.95;100.00
34506;BME280;20748;42.632;23.198;2022-07-06T01:21:12;92066.63;;;18.82;100.00
34506;BME280;20748;42.632;23.198;2022-07-06T01:23:46;92076.50;;;18.85;100.00
34506;BME280;20748;42.632;23.198;2022-07-06T01:26:21;92068.03;;;18.95;100.00
34506;BME280;20748;42.632;23.198;2022-07-06T01:28:53;92078.31;;;19.00;100.00
34506;BME280;20748;42.632;23.198;2022-07-06T01:31:26;92082.19;;;19.03;100.00
34506;BME280;20748;42.632;23.198;2022-07-06T01:33:59;92084.69;;;18.99;100.00
34506;BME280;20748;42.632;23.198;2022-07-06T01:36:32;92082.00;;;18.96;100.00
34506;BME280;20748;42.632;23.198;2022-07-06T01:39:04;92078.66;;;18.99;99.92
34506;BME280;20748;42.632;23.198;2022-07-06T01:41:37;92076.28;;;18.94;100.00
34506;BME280;20748;42.632;23.198;2022-07-06T01:44:10;92081.53;;;18.90;100.00
34506;BME280;20748;42.632;23.198;2022-07-06T01:46:43;92085.69;;;18.91;98.19
34506;BME280;20748;42.632;23.198;2022-07-06T01:49:16;92085.63;;;18.87;98.69
34506;BME280;20748;42.632;23.198;2022-07-06T01:51:49;92084.78;;;18.83;98.14
34506;BME280;20748;42.632;23.198;2022-07-06T01:54:21;92093.03;;;18.82;98.30
34506;BME280;20748;42.632;23.198;2022-07-06T01:56:54;92103.22;;;18.79;98.58
34506;BME280;20748;42.632;23.198;2022-07-06T01:59:26;92097.75;;;18.52;100.00
34506;BME280;20748;42.632;23.198;2022-07-06T02:01:59;92093.63;;;18.55;100.00
34506;BME280;20748;42.632;23.198;2022-07-06T02:04:31;92095.72;;;18.46;100.00
34506;BME280;20748;42.632;23.198;2022-07-06T02:07:06;92092.88;;;18.55;100.00
34506;BME280;20748;42.632;23.198;2022-07-06T02:09:38;92094.81;;;18.58;100.00
34506;BME280;20748;42.632;23.198;2022-07-06T02:12:11;92099.38;;;18.57;100.00
34506;BME280;20748;42.632;23.198;2022-07-06T02:14:43;92102.50;;;18.63;100.00
34506;BME280;20748;42.632;23.198;2022-07-06T02:17:16;92105.75;;;18.56;100.00
34506;BME280;20748;42.632;23.198;2022-07-06T02:19:48;92105.25;;;18.50;100.00
34506;BME280;20748;42.632;23.198;2022-07-06T02:22:21;92107.16;;;18.50;99.58
34506;BME280;20748;42.632;23.198;2022-07-06T02:24:54;92111.25;;;18.47;99.36
34506;BME280;20748;42.632;23.198;2022-07-06T02:27:27;92116.06;;;18.45;98.87
34506;BME280;20748;42.632;23.198;2022-07-06T02:29:59;92116.84;;;18.46;99.29
34506;BME280;20748;42.632;23.198;2022-07-06T02:32:33;92116.06;;;18.45;98.40
34506;BME280;20748;42.632;23.198;2022-07-06T02:35:06;92112.69;;;18.45;97.36
34506;BME280;20748;42.632;23.198;2022-07-06T02:37:40;92116.19;;;18.33;95.93
34506;BME280;20748;42.632;23.198;2022-07-06T02:40:12;92108.53;;;18.28;96.71
34506;BME280;20748;42.632;23.198;2022-07-06T02:42:45;92101.97;;;18.21;97.32
34506;BME280;20748;42.632;23.198;2022-07-06T02:45:17;92098.66;;;18.24;97.99
34506;BME280;20748;42.632;23.198;2022-07-06T02:47:50;92100.44;;;18.20;97.75
34506;BME280;20748;42.632;23.198;2022-07-06T02:50:23;92098.84;;;18.16;98.71
34506;BME280;20748;42.632;23.198;2022-07-06T02:52:56;92090.94;;;18.16;99.28
34506;BME280;20748;42.632;23.198;2022-07-06T02:55:30;92092.31;;;18.09;99.26
34506;BME280;20748;42.632;23.198;2022-07-06T02:58:02;92093.97;;;18.02;99.85
34506;BME280;20748;42.632;23.198;2022-07-06T03:00:36;92085.28;;;17.85;98.98
34506;BME280;20748;42.632;23.198;2022-07-06T03:03:08;92083.44;;;17.85;98.98
34506;BME280;20748;42.632;23.198;2022-07-06T03:05:42;92077.38;;;17.85;100.00
34506;BME280;20748;42.632;23.198;2022-07-06T03:08:15;92078.41;;;17.80;100.00
34506;BME280;20748;42.632;23.198;2022-07-06T03:10:48;92087.59;;;17.87;100.00
34506;BME280;20748;42.632;23.198;2022-07-06T03:13:21;92095.00;;;17.81;100.00
34506;BME280;20748;42.632;23.198;2022-07-06T03:15:55;92100.09;;;17.57;100.00
34506;BME280;20748;42.632;23.198;2022-07-06T03:18:28;92109.53;;;17.75;100.00
34506;BME280;20748;42.632;23.198;2022-07-06T03:21:02;92108.78;;;17.90;100.00
34506;BME280;20748;42.632;23.198;2022-07-06T03:23:36;92105.91;;;17.79;100.00
34506;BME280;20748;42.632;23.198;2022-07-06T03:26:10;92117.13;;;17.92;100.00
34506;BME280;20748;42.632;23.198;2022-07-06T03:28:42;92106.75;;;17.83;100.00
34506;BME280;20748;42.632;23.198;2022-07-06T03:31:15;92117.13;;;17.76;100.00
34506;BME280;20748;42.632;23.198;2022-07-06T03:33:48;92112.53;;;17.73;100.00
34506;BME280;20748;42.632;23.198;2022-07-06T03:36:21;92113.69;;;17.60;100.00
34506;BME280;20748;42.632;23.198;2022-07-06T03:38:54;92116.19;;;17.68;100.00
34506;BME280;20748;42.632;23.198;2022-07-06T03:41:28;92124.25;;;17.60;100.00
34506;BME280;20748;42.632;23.198;2022-07-06T03:44:01;92122.88;;;17.50;100.00
34506;BME280;20748;42.632;23.198;2022-07-06T03:46:34;92126.06;;;17.55;100.00
34506;BME280;20748;42.632;23.198;2022-07-06T03:49:07;92122.06;;;17.62;100.00
34506;BME280;20748;42.632;23.198;2022-07-06T03:51:40;92123.50;;;17.59;100.00
34506;BME280;20748;42.632;23.198;2022-07-06T03:54:14;92125.97;;;17.68;100.00
34506;BME280;20748;42.632;23.198;2022-07-06T03:56:46;92120.78;;;17.55;100.00
34506;BME280;20748;42.632;23.198;2022-07-06T03:59:20;92112.72;;;17.64;100.00
34506;BME280;20748;42.632;23.198;2022-07-06T04:01:53;92124.88;;;17.69;100.00
34506;BME280;20748;42.632;23.198;2022-07-06T04:04:26;92130.06;;;17.65;100.00
34506;BME280;20748;42.632;23.198;2022-07-06T04:06:59;92134.66;;;17.68;100.00
34506;BME280;20748;42.632;23.198;2022-07-06T04:09:33;92122.66;;;17.71;100.00
34506;BME280;20748;42.632;23.198;2022-07-06T04:12:06;92127.50;;;17.69;100.00
34506;BME280;20748;42.632;23.198;2022-07-06T04:14:39;92125.38;;;17.75;100.00
34506;BME280;20748;42.632;23.198;2022-07-06T04:17:12;92125.63;;;17.69;100.00
34506;BME280;20748;42.632;23.198;2022-07-06T04:20:04;92122.06;;;17.78;100.00
34506;BME280;20748;42.632;23.198;2022-07-06T04:22:37;92126.81;;;17.72;100.00
34506;BME280;20748;42.632;23.198;2022-07-06T04:25:11;92122.94;;;17.82;100.00
34506;BME280;20748;42.632;23.198;2022-07-06T04:27:44;92126.06;;;17.88;100.00
34506;BME280;20748;42.632;23.198;2022-07-06T04:30:18;92117.19;;;17.64;100.00
34506;BME280;20748;42.632;23.198;2022-07-06T04:32:52;92134.00;;;17.88;100.00
34506;BME280;20748;42.632;23.198;2022-07-06T04:35:24;92140.22;;;17.95;100.00
34506;BME280;20748;42.632;23.198;2022-07-06T04:37:58;92135.00;;;17.99;100.00
34506;BME280;20748;42.632;23.198;2022-07-06T04:40:31;92142.38;;;18.06;100.00
34506;BME280;20748;42.632;23.198;2022-07-06T04:43:08;92141.25;;;18.07;99.21
34506;BME280;20748;42.632;23.198;2022-07-06T04:45:42;92157.19;;;18.10;99.15
34506;BME280;20748;42.632;23.198;2022-07-06T04:48:15;92163.03;;;18.20;98.85
34506;BME280;20748;42.632;23.198;2022-07-06T04:50:47;92162.38;;;18.23;100.00
34506;BME280;20748;42.632;23.198;2022-07-06T04:53:25;92163.56;;;18.25;100.00
34506;BME280;20748;42.632;23.198;2022-07-06T04:55:59;92166.63;;;18.28;100.00
34506;BME280;20748;42.632;23.198;2022-07-06T04:58:34;92177.44;;;18.06;100.00
34506;BME280;20748;42.632;23.198;2022-07-06T05:03:51;92181.44;;;18.16;100.00
34506;BME280;20748;42.632;23.198;2022-07-06T05:06:26;92190.94;;;18.17;100.00
34506;BME280;20748;42.632;23.198;2022-07-06T05:08:59;92197.97;;;18.13;100.00
34506;BME280;20748;42.632;23.198;2022-07-06T05:11:32;92192.63;;;18.09;100.00
34506;BME280;20748;42.632;23.198;2022-07-06T05:14:06;92202.19;;;17.85;100.00
34506;BME280;20748;42.632;23.198;2022-07-06T05:16:38;92188.38;;;17.92;100.00
34506;BME280;20748;42.632;23.198;2022-07-06T05:19:11;92194.91;;;18.11;100.00
34506;BME280;20748;42.632;23.198;2022-07-06T05:21:44;92201.13;;;18.19;100.00
34506;BME280;20748;42.632;23.198;2022-07-06T05:24:17;92208.09;;;18.11;100.00
34506;BME280;20748;42.632;23.198;2022-07-06T05:26:51;92207.50;;;18.18;99.37
34506;BME280;20748;42.632;23.198;2022-07-06T05:29:24;92207.44;;;18.30;98.58
34506;BME280;20748;42.632;23.198;2022-07-06T05:31:57;92211.19;;;18.29;100.00
34506;BME280;20748;42.632;23.198;2022-07-06T05:34:29;92209.75;;;18.32;99.38
34506;BME280;20748;42.632;23.198;2022-07-06T05:37:02;92220.63;;;18.46;99.35
34506;BME280;20748;42.632;23.198;2022-07-06T05:39:35;92217.06;;;18.55;97.04
34506;BME280;20748;42.632;23.198;2022-07-06T05:42:12;92221.31;;;18.59;97.61
34506;BME280;20748;42.632;23.198;2022-07-06T05:44:46;92225.22;;;18.65;99.08
34506;BME280;20748;42.632;23.198;2022-07-06T05:47:19;92230.09;;;18.63;98.71
34506;BME280;20748;42.632;23.198;2022-07-06T05:50:09;92227.00;;;18.77;94.39
34506;BME280;20748;42.632;23.198;2022-07-06T05:52:55;92221.81;;;18.81;94.95
34506;BME280;20748;42.632;23.198;2022-07-06T05:55:29;92221.47;;;18.83;95.33
34506;BME280;20748;42.632;23.198;2022-07-06T05:58:04;92227.56;;;18.87;94.30
34506;BME280;20748;42.632;23.198;2022-07-06T06:00:38;92228.84;;;18.93;92.14
34506;BME280;20748;42.632;23.198;2022-07-06T06:03:18;92220.09;;;18.89;91.92
34506;BME280;20748;42.632;23.198;2022-07-06T06:05:53;92226.50;;;18.72;94.90
34506;BME280;20748;42.632;23.198;2022-07-06T06:08:28;92219.16;;;18.81;95.30
34506;BME280;20748;42.632;23.198;2022-07-06T06:11:00;92217.56;;;18.76;93.46
34506;BME280;20748;42.632;23.198;2022-07-06T06:13:41;92217.44;;;18.73;94.36
34506;BME280;20748;42.632;23.198;2022-07-06T06:16:13;92221.03;;;18.81;94.62
34506;BME280;20748;42.632;23.198;2022-07-06T06:18:47;92207.72;;;18.77;95.54
34506;BME280;20748;42.632;23.198;2022-07-06T06:21:20;92205.16;;;18.81;96.31
34506;BME280;20748;42.632;23.198;2022-07-06T06:23:53;92205.44;;;18.75;94.89
34506;BME280;20748;42.632;23.198;2022-07-06T06:26:25;92203.84;;;18.90;93.96
34506;BME280;20748;42.632;23.198;2022-07-06T06:28:58;92207.88;;;19.00;92.60
34506;BME280;20748;42.632;23.198;2022-07-06T06:31:31;92204.44;;;19.00;92.12
34506;BME280;20748;42.632;23.198;2022-07-06T06:34:09;92207.75;;;18.97;90.29
34506;BME280;20748;42.632;23.198;2022-07-06T06:36:41;92200.44;;;19.06;90.36
34506;BME280;20748;42.632;23.198;2022-07-06T06:39:14;92201.81;;;19.00;92.61
34506;BME280;20748;42.632;23.198;2022-07-06T06:41:46;92195.66;;;19.12;93.38
34506;BME280;20748;42.632;23.198;2022-07-06T06:44:19;92200.66;;;19.17;92.76
34506;BME280;20748;42.632;23.198;2022-07-06T06:46:54;92200.06;;;19.24;91.55
34506;BME280;20748;42.632;23.198;2022-07-06T06:49:27;92199.16;;;19.36;91.80
34506;BME280;20748;42.632;23.198;2022-07-06T06:51:59;92193.78;;;19.32;92.95
34506;BME280;20748;42.632;23.198;2022-07-06T06:54:52;92192.28;;;19.51;91.66
34506;BME280;20748;42.632;23.198;2022-07-06T06:57:24;92186.53;;;19.68;91.44
34506;BME280;20748;42.632;23.198;2022-07-06T06:59:57;92188.00;;;19.66;88.47
34506;BME280;20748;42.632;23.198;2022-07-06T07:02:30;92193.19;;;19.82;87.94
34506;BME280;20748;42.632;23.198;2022-07-06T07:05:03;92175.59;;;19.70;89.86
34506;BME280;20748;42.632;23.198;2022-07-06T07:07:36;92189.50;;;19.86;90.27
34506;BME280;20748;42.632;23.198;2022-07-06T07:10:09;92200.50;;;19.89;93.12
34506;BME280;20748;42.632;23.198;2022-07-06T07:12:45;92201.84;;;19.79;91.89
34506;BME280;20748;42.632;23.198;2022-07-06T07:15:18;92198.28;;;19.91;90.71
34506;BME280;20748;42.632;23.198;2022-07-06T07:17:51;92191.84;;;19.92;89.50
34506;BME280;20748;42.632;23.198;2022-07-06T07:20:23;92191.41;;;19.86;90.11
34506;BME280;20748;42.632;23.198;2022-07-06T07:22:57;92183.06;;;19.88;89.89
34506;BME280;20748;42.632;23.198;2022-07-06T07:25:30;92185.88;;;19.95;90.81
34506;BME280;20748;42.632;23.198;2022-07-06T07:28:03;92187.28;;;19.89;90.78
34506;BME280;20748;42.632;23.198;2022-07-06T07:30:36;92197.31;;;19.99;91.19
34506;BME280;20748;42.632;23.198;2022-07-06T07:33:08;92197.31;;;19.99;91.49
34506;BME280;20748;42.632;23.198;2022-07-06T07:35:41;92195.44;;;19.99;91.42
34506;BME280;20748;42.632;23.198;2022-07-06T07:38:13;92198.19;;;20.07;89.13
34506;BME280;20748;42.632;23.198;2022-07-06T07:40:46;92205.16;;;20.15;88.86
34506;BME280;20748;42.632;23.198;2022-07-06T07:43:18;92212.31;;;20.15;87.89
34506;BME280;20748;42.632;23.198;2022-07-06T07:45:52;92205.91;;;20.16;86.20
34506;BME280;20748;42.632;23.198;2022-07-06T07:48:24;92200.25;;;20.17;86.43
34506;BME280;20748;42.632;23.198;2022-07-06T07:50:58;92197.72;;;20.24;87.33
34506;BME280;20748;42.632;23.198;2022-07-06T07:53:30;92198.06;;;20.23;88.19
34506;BME280;20748;42.632;23.198;2022-07-06T07:56:03;92200.03;;;20.26;88.90
34506;BME280;20748;42.632;23.198;2022-07-06T07:58:36;92192.16;;;20.06;88.37
34506;BME280;20748;42.632;23.198;2022-07-06T08:01:09;92202.63;;;20.22;88.66
34506;BME280;20748;42.632;23.198;2022-07-06T08:03:42;92199.25;;;20.25;87.79
34506;BME280;20748;42.632;23.198;2022-07-06T08:06:15;92200.63;;;20.39;86.11
34506;BME280;20748;42.632;23.198;2022-07-06T08:08:47;92201.19;;;20.52;85.17
34506;BME280;20748;42.632;23.198;2022-07-06T08:11:19;92201.41;;;20.66;83.91
34506;BME280;20748;42.632;23.198;2022-07-06T08:13:52;92209.50;;;20.77;83.73
34506;BME280;20748;42.632;23.198;2022-07-06T08:16:25;92205.84;;;20.86;83.65
34506;BME280;20748;42.632;23.198;2022-07-06T08:18:58;92204.81;;;20.90;83.25
34506;BME280;20748;42.632;23.198;2022-07-06T08:21:30;92207.50;;;20.94;82.97
34506;BME280;20748;42.632;23.198;2022-07-06T08:24:03;92214.38;;;20.99;83.50
34506;BME280;20748;42.632;23.198;2022-07-06T08:26:36;92214.81;;;21.01;82.79
34506;BME280;20748;42.632;23.198;2022-07-06T08:29:08;92212.25;;;21.08;82.92
34506;BME280;20748;42.632;23.198;2022-07-06T08:31:42;92213.41;;;21.11;82.55
34506;BME280;20748;42.632;23.198;2022-07-06T08:34:34;92208.53;;;21.16;82.81
34506;BME280;20748;42.632;23.198;2022-07-06T08:37:06;92214.16;;;21.11;84.77
34506;BME280;20748;42.632;23.198;2022-07-06T08:39:39;92206.94;;;21.08;84.36
34506;BME280;20748;42.632;23.198;2022-07-06T08:42:12;92210.44;;;21.16;83.67
34506;BME280;20748;42.632;23.198;2022-07-06T08:44:48;92207.09;;;21.23;84.53
34506;BME280;20748;42.632;23.198;2022-07-06T08:47:23;92211.44;;;21.35;83.77
34506;BME280;20748;42.632;23.198;2022-07-06T08:49:58;92215.00;;;21.46;82.91
34506;BME280;20748;42.632;23.198;2022-07-06T08:52:31;92212.75;;;21.52;82.08
34506;BME280;20748;42.632;23.198;2022-07-06T08:55:04;92205.31;;;21.61;80.77
34506;BME280;20748;42.632;23.198;2022-07-06T08:57:37;92205.25;;;21.57;79.69
34506;BME280;20748;42.632;23.198;2022-07-06T09:00:12;92217.13;;;21.67;79.33
34506;BME280;20748;42.632;23.198;2022-07-06T09:02:45;92216.94;;;21.83;79.41
34506;BME280;20748;42.632;23.198;2022-07-06T09:05:21;92210.56;;;21.92;80.34
34506;BME280;20748;42.632;23.198;2022-07-06T09:07:55;92213.41;;;22.10;80.19
34506;BME280;20748;42.632;23.198;2022-07-06T09:10:32;92213.06;;;22.15;77.27
34506;BME280;20748;42.632;23.198;2022-07-06T09:13:05;92204.66;;;22.09;76.81
34506;BME280;20748;42.632;23.198;2022-07-06T09:15:38;92210.13;;;22.24;76.94
34506;BME280;20748;42.632;23.198;2022-07-06T09:18:12;92207.88;;;22.30;77.10
34506;BME280;20748;42.632;23.198;2022-07-06T09:20:44;92210.47;;;22.22;76.48
34506;BME280;20748;42.632;23.198;2022-07-06T09:23:17;92213.88;;;22.19;77.85
34506;BME280;20748;42.632;23.198;2022-07-06T09:25:49;92208.38;;;22.43;77.91
34506;BME280;20748;42.632;23.198;2022-07-06T09:28:22;92209.94;;;22.51;75.44
34506;BME280;20748;42.632;23.198;2022-07-06T09:30:55;92207.06;;;22.63;76.43
34506;BME280;20748;42.632;23.198;2022-07-06T09:33:33;92204.31;;;22.56;78.49
34506;BME280;20748;42.632;23.198;2022-07-06T09:36:06;92203.56;;;22.56;77.05
34506;BME280;20748;42.632;23.198;2022-07-06T09:38:39;92204.03;;;22.69;75.67
34506;BME280;20748;42.632;23.198;2022-07-06T09:41:11;92200.72;;;22.83;74.27
34506;BME280;20748;42.632;23.198;2022-07-06T09:43:44;92196.56;;;22.89;73.13
34506;BME280;20748;42.632;23.198;2022-07-06T09:46:18;92197.75;;;22.95;73.88
34506;BME280;20748;42.632;23.198;2022-07-06T09:48:52;92189.00;;;22.95;72.91
34506;BME280;20748;42.632;23.198;2022-07-06T09:51:29;92191.19;;;22.78;72.42
34506;BME280;20748;42.632;23.198;2022-07-06T09:54:05;92192.19;;;22.59;72.52
34506;BME280;20748;42.632;23.198;2022-07-06T09:56:39;92192.22;;;22.66;72.25
34506;BME280;20748;42.632;23.198;2022-07-06T09:59:13;92198.03;;;22.79;71.46
34506;BME280;20748;42.632;23.198;2022-07-06T10:01:45;92192.41;;;22.91;72.99
34506;BME280;20748;42.632;23.198;2022-07-06T10:04:19;92200.78;;;22.90;69.74
34506;BME280;20748;42.632;23.198;2022-07-06T10:06:52;92198.16;;;23.01;72.03
34506;BME280;20748;42.632;23.198;2022-07-06T10:09:26;92197.53;;;23.29;72.48
34506;BME280;20748;42.632;23.198;2022-07-06T10:12:03;92180.78;;;23.22;72.10
34506;BME280;20748;42.632;23.198;2022-07-06T10:14:37;92193.03;;;23.33;71.39
34506;BME280;20748;42.632;23.198;2022-07-06T10:17:12;92187.22;;;23.17;69.18
34506;BME280;20748;42.632;23.198;2022-07-06T10:19:46;92187.72;;;23.33;70.17
34506;BME280;20748;42.632;23.198;2022-07-06T10:22:19;92184.69;;;23.35;68.71
34506;BME280;20748;42.632;23.198;2022-07-06T10:24:52;92182.09;;;23.57;68.54
34506;BME280;20748;42.632;23.198;2022-07-06T10:27:25;92180.63;;;23.74;68.44
34506;BME280;20748;42.632;23.198;2022-07-06T10:29:58;92176.88;;;24.04;69.10
34506;BME280;20748;42.632;23.198;2022-07-06T10:32:30;92174.66;;;24.32;66.36
34506;BME280;20748;42.632;23.198;2022-07-06T10:35:05;92172.75;;;24.36;64.29
34506;BME280;20748;42.632;23.198;2022-07-06T10:37:38;92173.13;;;24.67;62.25
34506;BME280;20748;42.632;23.198;2022-07-06T10:40:31;92170.06;;;24.87;63.40
34506;BME280;20748;42.632;23.198;2022-07-06T10:43:22;92176.47;;;25.22;63.78
34506;BME280;20748;42.632;23.198;2022-07-06T10:45:57;92177.56;;;25.36;62.42
34506;BME280;20748;42.632;23.198;2022-07-06T10:48:34;92178.34;;;25.29;60.69
34506;BME280;20748;42.632;23.198;2022-07-06T10:51:09;92174.84;;;25.57;62.35
34506;BME280;20748;42.632;23.198;2022-07-06T10:53:42;92182.19;;;25.17;59.94
34506;BME280;20748;42.632;23.198;2022-07-06T10:56:16;92179.88;;;25.26;61.91
34506;BME280;20748;42.632;23.198;2022-07-06T10:58:49;92180.25;;;25.25;58.82
34506;BME280;20748;42.632;23.198;2022-07-06T11:01:28;92182.97;;;25.14;61.80
34506;BME280;20748;42.632;23.198;2022-07-06T11:04:08;92179.56;;;25.02;60.94
34506;BME280;20748;42.632;23.198;2022-07-06T11:06:42;92181.78;;;25.33;59.06
34506;BME280;20748;42.632;23.198;2022-07-06T11:09:17;92174.84;;;25.54;61.35
34506;BME280;20748;42.632;23.198;2022-07-06T11:11:50;92174.78;;;25.68;57.49
34506;BME280;20748;42.632;23.198;2022-07-06T11:14:22;92181.22;;;25.82;60.84
34506;BME280;20748;42.632;23.198;2022-07-06T11:17:02;92172.81;;;25.76;58.05
34506;BME280;20748;42.632;23.198;2022-07-06T11:19:36;92175.59;;;25.62;57.68
34506;BME280;20748;42.632;23.198;2022-07-06T11:22:09;92179.41;;;25.50;59.91
34506;BME280;20748;42.632;23.198;2022-07-06T11:24:42;92171.81;;;25.44;58.92
34506;BME280;20748;42.632;23.198;2022-07-06T11:27:16;92175.63;;;25.47;61.67
34506;BME280;20748;42.632;23.198;2022-07-06T11:29:49;92171.47;;;25.35;59.46
34506;BME280;20748;42.632;23.198;2022-07-06T11:32:24;92177.59;;;25.21;56.68
34506;BME280;20748;42.632;23.198;2022-07-06T11:34:57;92174.63;;;24.72;57.88
34506;BME280;20748;42.632;23.198;2022-07-06T11:37:30;92166.66;;;24.43;59.08
34506;BME280;20748;42.632;23.198;2022-07-06T11:40:07;92165.13;;;24.56;59.43
34506;BME280;20748;42.632;23.198;2022-07-06T11:42:39;92157.53;;;24.44;58.74
34506;BME280;20748;42.632;23.198;2022-07-06T11:45:12;92156.00;;;24.35;59.77
34506;BME280;20748;42.632;23.198;2022-07-06T11:47:44;92153.69;;;24.59;60.13
34506;BME280;20748;42.632;23.198;2022-07-06T11:50:19;92154.81;;;24.87;58.57
34506;BME280;20748;42.632;23.198;2022-07-06T11:52:52;92144.09;;;25.02;59.63
34506;BME280;20748;42.632;23.198;2022-07-06T11:55:28;92139.50;;;25.10;61.74
34506;BME280;20748;42.632;23.198;2022-07-06T11:58:01;92138.03;;;24.87;61.14
34506;BME280;20748;42.632;23.198;2022-07-06T12:00:34;92144.09;;;25.13;60.49
34506;BME280;20748;42.632;23.198;2022-07-06T12:03:15;92145.66;;;25.03;59.39
34506;BME280;20748;42.632;23.198;2022-07-06T12:05:48;92138.00;;;25.05;61.36
34506;BME280;20748;42.632;23.198;2022-07-06T12:08:21;92141.47;;;24.69;59.67
34506;BME280;20748;42.632;23.198;2022-07-06T12:10:54;92135.75;;;24.92;59.92
34506;BME280;20748;42.632;23.198;2022-07-06T12:13:27;92136.47;;;25.07;60.62
34506;BME280;20748;42.632;23.198;2022-07-06T12:16:12;92141.44;;;25.09;61.31
34506;BME280;20748;42.632;23.198;2022-07-06T12:18:46;92141.06;;;25.00;59.03
34506;BME280;20748;42.632;23.198;2022-07-06T12:21:20;92135.31;;;25.12;61.57
34506;BME280;20748;42.632;23.198;2022-07-06T12:23:54;92137.13;;;25.33;57.97
34506;BME280;20748;42.632;23.198;2022-07-06T12:26:28;92141.69;;;25.44;58.95
34506;BME280;20748;42.632;23.198;2022-07-06T12:29:11;92145.88;;;25.45;57.62
34506;BME280;20748;42.632;23.198;2022-07-06T12:31:49;92145.09;;;25.48;58.25
34506;BME280;20748;42.632;23.198;2022-07-06T12:34:22;92123.50;;;25.06;61.38
34506;BME280;20748;42.632;23.198;2022-07-06T12:36:57;92126.22;;;24.91;62.02
34506;BME280;20748;42.632;23.198;2022-07-06T12:39:42;92128.84;;;25.10;63.69
34506;BME280;20748;42.632;23.198;2022-07-06T12:42:16;92129.94;;;25.27;61.88
34506;BME280;20748;42.632;23.198;2022-07-06T12:44:52;92131.47;;;25.17;56.66
34506;BME280;20748;42.632;23.198;2022-07-06T12:47:25;92122.31;;;25.14;59.45
34506;BME280;20748;42.632;23.198;2022-07-06T12:50:06;92115.44;;;25.24;59.24
34506;BME280;20748;42.632;23.198;2022-07-06T12:52:39;92126.13;;;25.24;56.50
34506;BME280;20748;42.632;23.198;2022-07-06T12:55:12;92120.44;;;25.11;56.90
34506;BME280;20748;42.632;23.198;2022-07-06T12:57:48;92117.00;;;25.14;56.87
34506;BME280;20748;42.632;23.198;2022-07-06T13:00:21;92125.72;;;25.26;59.61
34506;BME280;20748;42.632;23.198;2022-07-06T13:02:54;92123.75;;;25.37;58.99
34506;BME280;20748;42.632;23.198;2022-07-06T13:05:49;92121.50;;;25.36;58.17
34506;BME280;20748;42.632;23.198;2022-07-06T13:08:21;92122.22;;;25.40;55.95
34506;BME280;20748;42.632;23.198;2022-07-06T13:10:54;92111.97;;;25.31;56.10
34506;BME280;20748;42.632;23.198;2022-07-06T13:13:27;92114.56;;;25.49;55.86
34506;BME280;20748;42.632;23.198;2022-07-06T13:16:00;92114.19;;;25.54;53.26
34506;BME280;20748;42.632;23.198;2022-07-06T13:18:33;92102.34;;;25.52;54.77
34506;BME280;20748;42.632;23.198;2022-07-06T13:21:05;92104.22;;;25.62;53.89
34506;BME280;20748;42.632;23.198;2022-07-06T13:23:38;92113.78;;;25.48;54.71
34506;BME280;20748;42.632;23.198;2022-07-06T13:26:11;92110.41;;;25.37;54.37